Bondville, Illinois
Current Conditions -  °F | °C
As of 3:53 AM on Friday 21 Nov 2014 (Local Time) from KCMI Reporting Station
Clear Clear  
Wind Chill:   Ceiling: Unl
Heat Index: 15°   Visibility: 10mi
Dew Point:   Wind: 7mph
Humidity: 68%   Direction: 50°NE
Pressure: 30.4"   Gusts: NA
Location:  40.11°N, 88.37°W
Report Text: KCMI 210953Z AUTO 05006KT 10SM CLR M09/M14 A3040 RMK AO2 SLP304 T10941144 $
Loading
Personal Weather Stations






























Interactive Weather Map New forecast layout! Learn more

10-Day Weather Forecast

Advertisements
Track Severe Weather on mobile